createdAt,value
2023-03-05T00:02:32.807Z,9.00
2023-03-05T00:05:35.709Z,6.75
2023-03-05T00:08:38.682Z,4.00
2023-03-05T00:11:41.377Z,6.50
2023-03-05T00:14:44.394Z,6.75
2023-03-05T00:17:47.099Z,8.50
2023-03-05T00:20:50.949Z,2.50
2023-03-05T00:23:54.394Z,6.00
2023-03-05T00:26:57.325Z,6.50
2023-03-05T00:30:00.021Z,5.00
2023-03-05T00:33:03.158Z,7.00
2023-03-05T00:36:07.982Z,4.00
2023-03-05T00:39:12.031Z,6.25
2023-03-05T00:42:15.166Z,8.50
2023-03-05T00:45:17.989Z,4.00
2023-03-05T00:48:22.904Z,6.25
2023-03-05T00:51:26.636Z,7.50
2023-03-05T00:55:02.596Z,8.00
2023-03-05T00:58:59.540Z,6.00
2023-03-05T01:02:05.889Z,7.50
2023-03-05T01:05:11.624Z,4.50
2023-03-05T01:08:15.691Z,5.00
2023-03-05T01:11:18.550Z,7.25
2023-03-05T01:14:21.706Z,7.50
2023-03-05T01:17:24.488Z,6.50
2023-03-05T01:20:27.576Z,6.75
2023-03-05T01:23:30.190Z,8.75
2023-03-05T01:26:33.856Z,4.00
2023-03-05T01:29:37.290Z,6.25
2023-03-05T01:32:40.391Z,4.00
2023-03-05T01:35:43.046Z,3.50
2023-03-05T01:38:47.557Z,4.50
2023-03-05T01:41:50.277Z,7.00
2023-03-05T01:45:18.202Z,6.50
2023-03-05T01:48:20.989Z,8.00
2023-03-05T01:51:27.643Z,9.25
2023-03-05T01:54:34.882Z,11.50
2023-03-05T01:57:46.162Z,12.00
2023-03-05T02:00:50.885Z,12.50
2023-03-05T02:03:53.997Z,12.25
2023-03-05T02:06:57.146Z,11.00
2023-03-05T02:10:00.608Z,9.75
2023-03-05T02:14:20.423Z,9.00
2023-03-05T02:35:48.004Z,8.50
2023-03-05T02:39:07.578Z,9.25
2023-03-05T02:42:11.436Z,7.00
2023-03-05T02:45:14.394Z,11.50
2023-03-05T02:48:17.801Z,7.00
2023-03-05T02:51:20.844Z,9.00
2023-03-05T02:54:27.414Z,9.50
2023-03-05T02:57:30.226Z,10.00
2023-03-05T03:00:33.826Z,9.75
2023-03-05T03:03:46.658Z,9.75
2023-03-05T03:06:49.684Z,6.50
2023-03-05T03:09:53.011Z,9.75
2023-03-05T03:12:56.097Z,10.00
2023-03-05T03:16:06.976Z,9.50
2023-03-05T03:19:12.313Z,9.50
2023-03-05T03:22:16.318Z,9.00
2023-03-05T03:25:23.523Z,8.00
2023-03-05T03:28:37.363Z,11.00
2023-03-05T03:31:42.068Z,13.50
2023-03-05T04:02:37.083Z,12.75
2023-03-05T04:05:42.743Z,14.50
2023-03-05T04:08:45.669Z,13.50
2023-03-05T04:11:52.149Z,12.25
2023-03-05T04:14:54.662Z,15.00
2023-03-05T04:18:00.332Z,13.00
2023-03-05T04:21:03.123Z,15.00
2023-03-05T04:24:09.465Z,15.25
2023-03-05T04:27:12.231Z,15.00
2023-03-05T04:30:16.136Z,14.50
2023-03-05T04:33:21.935Z,13.50
2023-03-05T08:34:07.484Z,13.00
2023-03-05T08:37:10.880Z,13.00
2023-03-05T08:40:14.023Z,13.00
2023-03-05T08:43:17.839Z,15.00
2023-03-05T08:46:20.431Z,16.00
2023-03-05T08:49:23.281Z,12.33
2023-03-05T08:52:27.512Z,12.67
2023-03-05T08:55:30.487Z,13.00
2023-03-05T08:58:33.532Z,9.00
2023-03-05T09:01:36.502Z,12.00
2023-03-05T09:04:39.355Z,16.00
2023-03-05T09:07:42.221Z,14.33
2023-03-05T09:10:45.827Z,15.00
2023-03-05T09:13:48.698Z,11.33
2023-03-05T09:16:51.245Z,18.00
2023-03-05T09:19:54.055Z,15.67
2023-03-05T09:22:56.759Z,16.00
2023-03-05T09:25:59.799Z,18.00
2023-03-05T09:29:02.202Z,18.00
2023-03-05T09:32:05.479Z,16.00
2023-03-05T09:35:08.700Z,12.00
2023-03-05T09:38:13.505Z,6.00
2023-03-05T09:41:28.351Z,18.00
2023-03-05T09:44:50.041Z,14.33
2023-03-05T09:48:02.766Z,15.33
2023-03-05T09:51:05.682Z,16.00
2023-03-05T09:54:18.308Z,14.33
2023-03-05T09:57:42.156Z,16.00
2023-03-05T10:00:47.758Z,15.67
2023-03-05T10:03:58.546Z,17.33
2023-03-05T10:07:26.653Z,14.33
2023-03-05T10:10:42.581Z,19.67
2023-03-05T10:13:46.277Z,16.00
2023-03-05T10:17:19.311Z,18.00
2023-03-05T10:20:52.953Z,16.00
2023-03-05T10:24:24.185Z,16.67
2023-03-05T10:27:27.353Z,16.67
2023-03-05T10:31:14.993Z,15.00
2023-03-05T10:34:34.113Z,15.00
2023-03-05T10:38:17.254Z,13.00
2023-03-05T10:41:53.350Z,12.67
2023-03-05T10:45:01.678Z,19.00
2023-03-05T10:48:22.046Z,10.00
2023-03-05T10:51:41.756Z,15.67
2023-03-05T10:54:44.333Z,19.00
2023-03-05T10:57:47.781Z,19.00
2023-03-05T11:01:12.799Z,20.33
2023-03-05T11:04:32.327Z,15.33
2023-03-05T11:07:38.925Z,19.67
2023-03-05T11:10:42.539Z,18.33
2023-03-05T11:14:00.904Z,18.33
2023-03-05T11:17:33.531Z,8.33
2023-03-05T11:20:37.773Z,15.00
2023-03-05T11:23:41.043Z,16.00
2023-03-05T11:26:52.434Z,14.33
2023-03-05T11:29:55.478Z,17.33
2023-03-05T11:33:31.062Z,16.00
2023-03-05T11:36:35.865Z,12.33
2023-03-05T11:39:41.978Z,15.00
2023-03-05T11:42:45.528Z,10.00
2023-03-05T11:45:53.211Z,14.00
2023-03-05T11:48:56.775Z,9.00
2023-03-05T11:52:27.523Z,9.00
2023-03-05T11:55:37.201Z,9.00
2023-03-05T11:58:47.344Z,12.00
2023-03-05T12:01:54.077Z,9.00
2023-03-05T12:04:59.644Z,12.00
2023-03-05T12:08:03.606Z,16.67
2023-03-05T12:11:19.832Z,9.00
2023-03-05T12:14:58.325Z,10.00
2023-03-05T12:18:09.028Z,9.33
2023-03-05T12:21:37.578Z,10.67
2023-03-05T12:24:41.220Z,12.67
2023-03-05T12:27:44.750Z,12.00
2023-03-05T12:30:48.037Z,12.00
2023-03-05T12:33:51.110Z,6.67
2023-03-05T12:36:55.633Z,11.33
2023-03-05T12:39:58.739Z,16.67
2023-03-05T12:43:02.353Z,16.67
2023-03-05T12:46:27.349Z,15.00
2023-03-05T12:49:39.324Z,16.67
2023-03-05T12:52:47.828Z,16.00
2023-03-05T12:56:02.796Z,8.33
2023-03-05T12:59:06.582Z,19.67
2023-03-05T13:02:45.258Z,21.33
2023-03-05T13:05:52.883Z,15.00
2023-03-05T13:09:18.413Z,15.67
2023-03-05T13:12:22.292Z,15.00
2023-03-05T13:15:26.872Z,15.67
2023-03-05T13:18:33.498Z,18.67
2023-03-05T13:21:36.643Z,19.33
2023-03-05T13:24:40.829Z,18.67
2023-03-05T13:27:44.376Z,13.00
2023-03-05T13:30:57.421Z,18.00
2023-03-05T13:34:15.911Z,19.00
2023-03-05T13:37:27.965Z,24.00
2023-03-05T13:40:33.241Z,15.33
2023-03-05T13:43:44.061Z,16.00
2023-03-05T13:46:46.981Z,18.00
2023-03-05T13:50:02.557Z,19.67
2023-03-05T13:53:25.647Z,13.00
2023-03-05T13:56:29.573Z,20.67
2023-03-05T13:59:40.556Z,15.67
2023-03-05T14:02:47.328Z,18.00
2023-03-05T14:05:52.887Z,15.00
2023-03-05T14:09:05.938Z,18.00
2023-03-05T14:12:22.645Z,15.67
2023-03-05T14:15:36.252Z,15.00
2023-03-05T14:18:40.974Z,14.33
2023-03-05T14:21:51.101Z,18.67
2023-03-05T14:24:56.403Z,21.00
2023-03-05T14:28:30.783Z,18.33
2023-03-05T14:31:46.826Z,15.33
2023-03-05T14:34:56.259Z,18.00
2023-03-05T14:38:01.281Z,19.00
2023-03-05T14:41:33.399Z,19.00
2023-03-05T14:44:37.214Z,15.67
2023-03-05T14:47:41.477Z,15.33
2023-03-05T14:50:48.082Z,18.33
2023-03-05T14:53:52.699Z,20.33
2023-03-05T14:56:58.838Z,21.67
2023-03-05T15:00:03.146Z,18.00
2023-03-05T15:03:08.375Z,21.67
2023-03-05T15:06:25.580Z,21.00
2023-03-05T15:09:31.484Z,21.67
2023-03-05T15:12:36.604Z,19.67
2023-03-05T15:15:42.502Z,18.67
2023-03-05T15:18:46.571Z,22.00
2023-03-05T15:21:50.713Z,23.33
2023-03-05T15:24:57.584Z,18.33
2023-03-05T15:28:01.878Z,19.67
2023-03-05T15:31:07.971Z,21.67
2023-03-05T15:34:12.174Z,21.00
2023-03-05T15:37:20.006Z,18.00
2023-03-05T15:40:24.596Z,19.67
2023-03-05T15:43:34.037Z,21.00
2023-03-05T15:46:39.582Z,18.67
2023-03-05T15:49:46.874Z,18.00
2023-03-05T15:52:51.421Z,21.67
2023-03-05T15:55:56.085Z,21.33
2023-03-05T15:58:59.906Z,24.00
2023-03-05T16:02:06.102Z,24.75
2023-03-05T16:05:10.420Z,28.25
2023-03-05T16:08:15.574Z,30.25
2023-03-05T16:11:20.763Z,29.50
2023-03-05T16:14:31.076Z,33.00
2023-03-05T16:17:35.546Z,33.00
2023-03-05T16:20:44.554Z,39.00
2023-03-05T16:23:50.900Z,40.50
2023-03-05T16:26:57.043Z,35.00
2023-03-05T16:30:00.940Z,30.75
2023-03-05T16:33:05.506Z,30.75
2023-03-05T16:36:15.052Z,26.75
2023-03-05T16:39:20.112Z,27.50
2023-03-05T16:42:25.113Z,30.25
2023-03-05T16:45:33.341Z,25.50
2023-03-05T16:48:39.217Z,29.50
2023-03-05T16:51:43.965Z,32.50
2023-03-05T16:54:49.953Z,24.25
2023-03-05T16:57:54.889Z,24.50
2023-03-05T17:00:59.127Z,28.50
2023-03-05T17:04:06.035Z,26.75
2023-03-05T17:07:10.101Z,28.00
2023-03-05T17:10:15.705Z,22.00
2023-03-05T17:13:21.232Z,24.50
2023-03-05T17:16:26.133Z,27.50
2023-03-05T17:19:29.876Z,31.75
2023-03-05T17:22:35.286Z,22.50
2023-03-05T17:25:40.437Z,27.50
2023-03-05T17:28:48.672Z,30.00
2023-03-05T17:31:57.354Z,27.25
2023-03-05T17:35:05.633Z,31.50
2023-03-05T17:38:11.473Z,25.50
2023-03-05T17:41:19.954Z,26.25
2023-03-05T17:44:26.226Z,33.00
2023-03-05T17:47:37.051Z,33.00
2023-03-05T17:50:41.561Z,42.75
2023-03-05T17:53:48.453Z,36.75
2023-03-05T17:56:58.884Z,41.50
2023-03-05T18:00:07.097Z,40.50
2023-03-05T18:03:20.972Z,39.00
2023-03-05T18:06:31.377Z,38.00
2023-03-05T18:09:36.993Z,44.50
2023-03-05T18:12:47.136Z,38.00
2023-03-05T18:15:53.931Z,43.50
2023-03-05T18:19:00.181Z,42.25
2023-03-05T18:22:05.192Z,38.00
2023-03-05T18:25:15.531Z,31.50
2023-03-05T18:28:20.080Z,37.25
2023-03-05T18:31:25.372Z,38.00
2023-03-05T18:34:31.897Z,36.50
2023-03-05T18:37:40.221Z,38.00
2023-03-05T18:40:55.309Z,30.00
2023-03-05T18:44:35.168Z,37.50
2023-03-05T18:47:43.552Z,30.75
2023-03-05T18:50:51.941Z,33.75
2023-03-05T18:53:58.466Z,38.50
2023-03-05T18:57:02.974Z,31.00
2023-03-05T19:00:09.365Z,38.00
2023-03-05T19:03:15.543Z,29.25
2023-03-05T19:06:23.683Z,24.75
2023-03-05T19:09:42.944Z,28.25
2023-03-05T19:13:05.187Z,34.00
2023-03-05T19:16:18.692Z,29.00
2023-03-05T19:19:27.154Z,33.00
2023-03-05T19:22:33.252Z,29.50
2023-03-05T19:25:38.113Z,30.25
2023-03-05T19:28:42.008Z,29.25
2023-03-05T19:31:48.153Z,26.75
2023-03-05T19:34:56.739Z,30.75
2023-03-05T19:38:02.657Z,21.00
2023-03-05T19:41:07.595Z,31.50
2023-03-05T19:44:14.152Z,29.25
2023-03-05T19:47:19.217Z,31.50
2023-03-05T19:50:24.197Z,32.00
2023-03-05T19:53:30.804Z,30.25
2023-03-05T19:56:34.794Z,20.00
2023-03-05T19:59:39.085Z,28.00
2023-03-05T20:02:44.024Z,29.50
2023-03-05T20:05:48.715Z,29.00
2023-03-05T20:08:57.344Z,26.25
2023-03-05T20:12:04.976Z,31.50
2023-03-05T20:15:11.480Z,31.00
2023-03-05T20:18:15.111Z,31.50
2023-03-05T20:21:23.474Z,29.25
2023-03-05T20:24:29.575Z,38.00
2023-03-05T20:27:35.035Z,33.25
2023-03-05T20:30:41.059Z,35.25
2023-03-05T20:33:45.704Z,27.25
2023-03-05T20:36:50.542Z,35.75
2023-03-05T20:39:57.869Z,37.50
2023-03-05T20:43:14.710Z,33.00
2023-03-05T20:46:30.587Z,36.00
2023-03-05T20:49:34.891Z,33.50
2023-03-05T20:52:39.615Z,44.50
2023-03-05T20:55:43.590Z,36.50
2023-03-05T20:58:47.971Z,45.00
2023-03-05T21:01:53.156Z,45.75
2023-03-05T21:04:59.549Z,33.50
2023-03-05T21:08:06.296Z,42.75
2023-03-05T21:11:12.010Z,42.00
2023-03-05T21:14:15.697Z,38.50
2023-03-05T21:17:20.891Z,45.25
2023-03-05T21:20:30.778Z,49.00
2023-03-05T21:23:35.566Z,27.00
2023-03-05T21:26:39.657Z,47.00
2023-03-05T21:29:45.770Z,40.00
2023-03-05T21:32:49.476Z,40.00
2023-03-05T21:35:54.689Z,42.25
2023-03-05T21:38:59.224Z,44.00
2023-03-05T21:42:03.127Z,44.25
2023-03-05T21:45:06.788Z,46.50
2023-03-05T21:48:11.339Z,46.25
2023-03-05T21:51:14.351Z,46.00
2023-03-05T21:54:19.081Z,46.00
2023-03-05T21:57:22.129Z,48.75
2023-03-05T22:00:25.781Z,41.25
2023-03-05T22:03:28.906Z,45.50
2023-03-05T22:06:32.014Z,47.50
2023-03-05T22:09:34.591Z,44.50
2023-03-05T22:12:54.342Z,46.50
2023-03-05T22:15:58.245Z,48.25
2023-03-05T22:19:01.353Z,48.75
2023-03-05T22:22:04.028Z,45.25
2023-03-05T22:25:07.422Z,45.00
2023-03-05T22:28:11.321Z,48.75
2023-03-05T22:31:23.060Z,48.00
2023-03-05T22:34:25.623Z,42.75
2023-03-05T22:37:29.799Z,48.50
2023-03-05T22:40:32.584Z,39.00
2023-03-05T22:43:35.503Z,43.50
2023-03-05T22:46:38.136Z,49.50
2023-03-05T22:49:40.902Z,46.75
2023-03-05T22:52:43.613Z,44.00
2023-03-05T22:55:48.407Z,48.25
2023-03-05T22:58:50.991Z,42.00
2023-03-05T23:01:53.838Z,42.50
2023-03-05T23:05:00.731Z,48.00
2023-03-05T23:08:03.589Z,38.00
2023-03-05T23:11:11.442Z,42.25
2023-03-05T23:14:14.542Z,45.25
2023-03-05T23:17:17.111Z,45.75
2023-03-05T23:20:22.279Z,40.00
2023-03-05T23:23:25.760Z,41.00
2023-03-05T23:26:28.543Z,44.50
2023-03-05T23:29:37.292Z,45.00
2023-03-05T23:32:40.080Z,44.50
2023-03-05T23:35:49.664Z,43.00
2023-03-05T23:38:57.648Z,44.50
2023-03-05T23:42:00.114Z,48.25
2023-03-05T23:45:02.931Z,42.50
2023-03-05T23:48:05.546Z,48.75
2023-03-05T23:51:11.756Z,39.75
2023-03-05T23:54:14.287Z,43.25
2023-03-05T23:57:17.133Z,48.00
